Time;durP1;ratioP1;P1;durP2;ratioP2;P2;SDS_P1;SDS_P2;PMS_P1;PMS_P2;Temp;Humidity;BMP_temperature;BMP_pressure;BME280_temperature;BME280_humidity;BME280_pressure;Samples;Min_cycle;Max_cycle;Signal;HPM_P1;HPM_P2
2023/07/29 00:01:31;;;;;;;17.48;11.43;;;19.00;99.90;;;;;;5099132;28;20082;-67
2023/07/29 00:03:56;;;;;;;19.02;10.85;;;18.90;99.90;;;;;;5098138;28;20039;-67
2023/07/29 00:06:22;;;;;;;18.48;12.55;;;18.80;99.90;;;;;;5103133;28;20039;-67
2023/07/29 00:08:48;;;;;;;18.33;11.85;;;18.70;99.90;;;;;;5105176;28;20134;-67
2023/07/29 00:11:13;;;;;;;18.65;11.88;;;18.70;99.90;;;;;;5094886;28;20031;-67
2023/07/29 00:13:39;;;;;;;15.93;11.95;;;18.60;99.90;;;;;;5102559;27;20039;-67
2023/07/29 00:16:06;;;;;;;16.10;11.77;;;18.60;99.90;;;;;;5104696;28;20035;-69
2023/07/29 00:18:32;;;;;;;17.58;12.25;;;18.50;99.90;;;;;;5100220;28;20055;-70
2023/07/29 00:20:58;;;;;;;18.65;12.98;;;18.50;99.90;;;;;;5089747;28;20051;-69
2023/07/29 00:23:23;;;;;;;18.92;12.52;;;18.50;99.90;;;;;;5104116;28;20043;-69
2023/07/29 00:25:49;;;;;;;18.60;12.60;;;18.50;99.90;;;;;;5105183;28;20058;-71
2023/07/29 00:28:15;;;;;;;21.77;13.00;;;18.50;99.90;;;;;;5093873;28;20066;-66
2023/07/29 00:30:40;;;;;;;18.00;12.23;;;18.40;99.90;;;;;;5090413;28;20043;-68
2023/07/29 00:33:06;;;;;;;17.70;12.07;;;18.40;99.90;;;;;;5104384;28;20031;-68
2023/07/29 00:35:32;;;;;;;17.20;11.55;;;18.40;99.90;;;;;;5093259;28;20047;-67
2023/07/29 00:37:57;;;;;;;16.67;11.77;;;18.40;99.90;;;;;;5088307;28;20135;-68
2023/07/29 00:40:23;;;;;;;19.55;12.15;;;18.40;99.90;;;;;;5101968;28;20043;-65
2023/07/29 00:42:50;;;;;;;18.90;12.55;;;18.40;99.90;;;;;;5101534;28;20771;-66
2023/07/29 00:45:16;;;;;;;16.23;12.13;;;18.30;99.90;;;;;;5099027;28;20116;-67
2023/07/29 00:47:42;;;;;;;19.48;11.82;;;18.30;99.90;;;;;;5107877;28;20118;-67
2023/07/29 00:50:11;;;;;;;19.60;12.32;;;18.20;99.90;;;;;;5104290;28;20036;-69
2023/07/29 00:52:36;;;;;;;17.73;12.00;;;18.20;99.90;;;;;;5099827;28;20576;-65
2023/07/29 00:55:03;;;;;;;17.95;11.48;;;18.20;99.90;;;;;;5099840;28;20047;-66
2023/07/29 00:57:30;;;;;;;22.02;11.65;;;18.20;99.90;;;;;;5101499;28;20051;-64
2023/07/29 00:59:56;;;;;;;18.00;11.38;;;18.20;99.90;;;;;;5104236;28;20391;-68
2023/07/29 01:02:22;;;;;;;19.00;11.15;;;18.20;99.90;;;;;;5096280;28;20054;-66
2023/07/29 01:04:55;;;;;;;16.13;11.05;;;18.10;99.90;;;;;;5100083;28;20027;-66
2023/07/29 01:07:41;;;;;;;15.93;10.85;;;18.10;99.90;;;;;;5102916;28;20058;-69
2023/07/29 01:10:28;;;;;;;20.33;11.48;;;18.00;99.90;;;;;;5094303;28;20036;-68
2023/07/29 01:13:05;;;;;;;17.08;11.10;;;18.00;99.90;;;;;;5101306;28;20035;-68
2023/07/29 01:15:43;;;;;;;14.73;11.07;;;18.00;99.90;;;;;;5105245;28;20043;-68
2023/07/29 01:18:14;;;;;;;17.45;11.55;;;18.00;99.90;;;;;;5096872;28;20114;-66
2023/07/29 01:20:43;;;;;;;16.98;11.50;;;18.00;99.90;;;;;;5109266;28;20044;-65
2023/07/29 01:23:09;;;;;;;17.63;11.45;;;18.00;99.90;;;;;;5104486;28;20048;-68
2023/07/29 01:25:34;;;;;;;15.45;10.50;;;18.10;99.90;;;;;;5095628;28;20038;-67
2023/07/29 01:28:00;;;;;;;17.90;10.48;;;18.00;99.90;;;;;;5100686;28;20042;-67
2023/07/29 01:30:31;;;;;;;18.35;10.50;;;18.00;99.90;;;;;;5110735;28;20512;-65
2023/07/29 01:33:18;;;;;;;16.80;11.07;;;17.90;99.90;;;;;;5102779;28;20047;-67
2023/07/29 01:36:01;;;;;;;15.30;9.98;;;17.90;99.90;;;;;;5093773;28;20923;-67
2023/07/29 01:38:34;;;;;;;18.05;11.75;;;17.80;99.90;;;;;;5101285;28;20043;-68
2023/07/29 01:41:06;;;;;;;16.45;10.75;;;17.70;99.90;;;;;;5102621;28;20151;-68
2023/07/29 01:43:32;;;;;;;;;;;17.60;99.90;;;;;;5091320;28;20044;-67
2023/07/29 01:45:58;;;;;;;15.27;10.13;;;17.60;99.90;;;;;;5104917;28;19958;-67
2023/07/29 01:48:24;;;;;;;14.80;10.43;;;17.50;99.90;;;;;;5105965;28;20093;-65
2023/07/29 01:50:49;;;;;;;19.80;11.15;;;17.50;99.90;;;;;;5103358;28;20043;-65
2023/07/29 01:53:15;;;;;;;14.10;10.75;;;17.40;99.90;;;;;;5090366;28;20039;-67
2023/07/29 01:55:42;;;;;;;17.83;11.77;;;17.40;99.90;;;;;;5103240;28;20096;-67
2023/07/29 01:58:08;;;;;;;20.85;11.52;;;17.30;99.90;;;;;;5103556;28;20044;-67
2023/07/29 02:00:33;;;;;;;16.90;11.20;;;17.30;99.90;;;;;;5092722;28;20031;-67
2023/07/29 02:02:59;;;;;;;17.23;11.55;;;17.30;99.90;;;;;;5109151;28;20032;-67
2023/07/29 02:05:24;;;;;;;16.17;11.05;;;17.20;99.90;;;;;;5111842;28;20043;-67
2023/07/29 02:07:50;;;;;;;14.82;11.13;;;17.20;99.90;;;;;;5103101;28;20637;-67
2023/07/29 02:10:16;;;;;;;16.45;10.82;;;17.20;99.90;;;;;;5097793;28;20031;-67
2023/07/29 02:12:41;;;;;;;16.23;10.52;;;17.20;99.90;;;;;;5103247;28;20031;-68
2023/07/29 02:15:07;;;;;;;12.82;10.23;;;17.20;99.90;;;;;;5101504;28;20032;-65
2023/07/29 02:17:33;;;;;;;13.73;10.05;;;17.20;99.90;;;;;;5089668;28;20065;-67
2023/07/29 02:19:59;;;;;;;14.90;10.18;;;17.30;99.90;;;;;;5102894;28;20553;-67
2023/07/29 02:22:24;;;;;;;16.52;9.60;;;17.30;99.90;;;;;;5102789;28;20335;-67
2023/07/29 02:24:50;;;;;;;13.23;8.77;;;17.40;99.90;;;;;;5092904;28;20047;-68
2023/07/29 02:27:16;;;;;;;14.18;9.23;;;17.40;99.90;;;;;;5096575;28;20043;-67
2023/07/29 02:29:41;;;;;;;12.98;8.90;;;17.40;99.90;;;;;;5105611;28;20101;-67
2023/07/29 02:32:07;;;;;;;12.10;8.52;;;17.40;99.90;;;;;;5108441;28;20043;-67
2023/07/29 02:34:33;;;;;;;12.48;8.27;;;17.50;99.90;;;;;;5104631;28;20028;-67
2023/07/29 02:36:58;;;;;;;10.23;8.15;;;17.40;99.90;;;;;;5107317;28;20039;-67
2023/07/29 02:39:24;;;;;;;13.82;8.23;;;17.50;99.90;;;;;;5106525;28;20047;-66
2023/07/29 02:41:49;;;;;;;14.80;7.88;;;17.30;99.90;;;;;;5099038;28;20035;-70
2023/07/29 02:44:15;;;;;;;13.20;8.20;;;17.30;99.90;;;;;;5089988;28;20402;-67
2023/07/29 02:46:41;;;;;;;10.77;8.55;;;17.20;99.90;;;;;;5106221;28;20075;-66
2023/07/29 02:49:07;;;;;;;15.18;7.65;;;17.20;99.90;;;;;;5100798;28;20131;-65
2023/07/29 02:51:32;;;;;;;13.02;7.45;;;17.20;99.90;;;;;;5096062;28;20112;-68
2023/07/29 02:53:58;;;;;;;12.13;7.22;;;17.10;99.90;;;;;;5105075;28;20492;-67
2023/07/29 02:56:24;;;;;;;11.55;7.28;;;17.20;99.90;;;;;;5106599;28;20454;-67
2023/07/29 02:58:51;;;;;;;11.25;7.47;;;17.10;99.90;;;;;;5094440;28;20035;-67
2023/07/29 03:01:17;;;;;;;8.90;6.95;;;17.10;99.90;;;;;;5099818;28;20035;-70
2023/07/29 03:03:43;;;;;;;10.98;7.57;;;17.10;99.90;;;;;;5106109;28;20050;-67
2023/07/29 03:06:10;;;;;;;10.80;7.38;;;17.10;99.90;;;;;;5101795;28;20035;-67
2023/07/29 03:08:35;;;;;;;10.10;6.70;;;17.00;99.90;;;;;;5094017;28;20043;-65
2023/07/29 03:11:10;;;;;;;8.48;6.00;;;17.00;99.90;;;;;;5104895;28;20069;-65
2023/07/29 03:13:37;;;;;;;9.07;5.80;;;16.90;99.90;;;;;;5104106;28;20032;-67
2023/07/29 03:16:11;;;;;;;11.73;5.68;;;16.90;99.90;;;;;;5098526;28;20529;-65
2023/07/29 03:18:36;;;;;;;9.55;5.53;;;16.90;99.90;;;;;;5097340;28;20040;-67
2023/07/29 03:21:03;;;;;;;10.48;5.80;;;16.90;99.90;;;;;;5105400;28;20439;-65
2023/07/29 03:23:30;;;;;;;9.95;5.85;;;16.90;99.90;;;;;;5101769;28;20090;-66
2023/07/29 03:25:59;;;;;;;8.95;5.75;;;16.90;99.90;;;;;;5106064;28;20088;-68
2023/07/29 03:28:27;;;;;;;10.35;5.43;;;16.90;99.90;;;;;;5103914;28;20050;-67
2023/07/29 03:30:53;;;;;;;9.27;6.03;;;16.90;99.90;;;;;;5106323;28;20039;-67
2023/07/29 03:33:19;;;;;;;9.18;5.65;;;16.90;99.90;;;;;;5093581;28;20111;-67
2023/07/29 03:35:45;;;;;;;7.53;5.03;;;16.80;99.90;;;;;;5097022;28;20126;-67
2023/07/29 03:38:11;;;;;;;8.77;5.28;;;16.80;99.90;;;;;;5103357;28;20044;-68
2023/07/29 03:40:38;;;;;;;7.82;5.00;;;16.70;99.90;;;;;;5093407;28;20040;-67
2023/07/29 03:43:04;;;;;;;10.80;4.70;;;16.70;99.90;;;;;;5103432;28;20050;-66
2023/07/29 03:45:29;;;;;;;6.28;4.40;;;16.70;99.90;;;;;;5111960;28;20035;-65
2023/07/29 03:47:55;;;;;;;7.90;4.60;;;16.60;99.90;;;;;;5097813;28;20496;-68
2023/07/29 03:50:21;;;;;;;7.72;4.72;;;16.60;99.90;;;;;;5098281;28;20109;-67
2023/07/29 03:52:46;;;;;;;5.88;4.15;;;16.60;99.90;;;;;;5105524;28;20046;-67
2023/07/29 03:55:12;;;;;;;6.30;4.28;;;16.60;99.90;;;;;;5100079;28;20035;-65
2023/07/29 03:57:38;;;;;;;5.30;3.92;;;16.60;99.90;;;;;;5101068;28;20394;-66
2023/07/29 04:00:04;;;;;;;8.20;4.40;;;16.60;99.90;;;;;;5099710;28;20127;-67
2023/07/29 04:02:30;;;;;;;5.85;3.92;;;16.60;99.90;;;;;;5104702;28;20140;-67
2023/07/29 04:04:55;;;;;;;7.75;4.57;;;16.60;99.90;;;;;;5099997;28;20063;-67
2023/07/29 04:07:21;;;;;;;8.90;4.47;;;16.60;99.90;;;;;;5095149;28;20460;-67
2023/07/29 04:09:47;;;;;;;6.97;4.63;;;16.60;99.90;;;;;;5106197;28;20035;-67
2023/07/29 04:12:12;;;;;;;6.75;4.20;;;16.60;99.90;;;;;;5095675;28;20113;-67
2023/07/29 04:14:38;;;;;;;6.47;4.20;;;16.60;99.90;;;;;;5087455;28;20387;-67
2023/07/29 04:17:04;;;;;;;5.63;4.15;;;16.60;99.90;;;;;;5101037;28;20043;-67
2023/07/29 04:19:29;;;;;;;7.60;4.30;;;16.60;99.90;;;;;;5105126;28;20044;-67
2023/07/29 04:21:55;;;;;;;5.30;3.80;;;16.60;99.90;;;;;;5102609;28;20036;-67
2023/07/29 04:24:23;;;;;;;9.30;4.18;;;16.70;99.90;;;;;;5092175;28;20048;-67
2023/07/29 04:26:49;;;;;;;5.40;4.00;;;16.70;99.90;;;;;;5105621;28;20070;-67
2023/07/29 04:29:14;;;;;;;7.63;4.35;;;16.80;99.90;;;;;;5105560;27;20696;-66
2023/07/29 04:31:40;;;;;;;5.60;3.72;;;16.80;99.90;;;;;;5096794;28;20112;-65
2023/07/29 04:34:06;;;;;;;6.00;3.85;;;16.80;99.90;;;;;;5105674;28;20036;-67
2023/07/29 04:36:32;;;;;;;7.68;3.45;;;16.80;99.90;;;;;;5105593;28;20047;-67
2023/07/29 04:38:58;;;;;;;6.55;3.65;;;16.90;99.90;;;;;;5099670;28;22312;-67
2023/07/29 04:41:24;;;;;;;5.75;3.65;;;16.90;99.90;;;;;;5099648;28;20031;-67
2023/07/29 04:43:49;;;;;;;9.20;3.72;;;16.90;99.90;;;;;;5104807;28;20399;-66
2023/07/29 04:46:15;;;;;;;6.07;3.47;;;16.90;99.90;;;;;;5097134;28;20032;-67
2023/07/29 04:48:41;;;;;;;7.55;4.13;;;16.90;99.90;;;;;;5104873;28;20554;-68
2023/07/29 04:51:07;;;;;;;7.22;4.38;;;16.90;99.90;;;;;;5100821;28;20034;-67
2023/07/29 04:53:34;;;;;;;5.93;4.20;;;16.90;99.90;;;;;;5108241;28;20424;-67
2023/07/29 04:56:00;;;;;;;9.13;3.90;;;17.00;99.90;;;;;;5098718;28;20044;-67
2023/07/29 04:58:28;;;;;;;6.93;3.88;;;17.00;99.90;;;;;;5082819;28;20048;-68
2023/07/29 05:00:54;;;;;;;9.13;4.03;;;17.00;99.90;;;;;;5083819;28;20117;-67
2023/07/29 05:03:20;;;;;;;5.63;3.45;;;17.00;99.90;;;;;;5092738;28;20039;-68
2023/07/29 05:05:45;;;;;;;6.70;4.00;;;17.00;99.90;;;;;;5086389;28;20267;-67
2023/07/29 05:08:11;;;;;;;9.25;4.57;;;17.00;99.90;;;;;;5090643;28;20534;-65
2023/07/29 05:10:36;;;;;;;8.38;4.20;;;17.10;99.90;;;;;;5105114;28;20454;-69
2023/07/29 05:13:02;;;;;;;7.40;4.35;;;17.10;99.90;;;;;;5105362;28;20039;-66
2023/07/29 05:15:28;;;;;;;9.30;4.32;;;17.10;99.90;;;;;;5099517;28;20451;-71
2023/07/29 05:17:53;;;;;;;8.52;4.82;;;17.10;99.90;;;;;;5092183;28;20138;-68
2023/07/29 05:20:19;;;;;;;7.53;4.50;;;17.20;99.90;;;;;;5095131;28;20032;-68
2023/07/29 05:22:44;;;;;;;8.15;4.78;;;17.20;99.90;;;;;;5103034;28;20118;-67
2023/07/29 05:25:10;;;;;;;7.32;4.75;;;17.20;99.90;;;;;;5103554;28;20134;-66
2023/07/29 05:27:36;;;;;;;7.57;4.70;;;17.20;99.90;;;;;;5097009;28;20402;-65
2023/07/29 05:30:01;;;;;;;7.05;4.95;;;17.30;99.90;;;;;;5085805;28;20482;-71
2023/07/29 05:32:27;;;;;;;11.18;5.93;;;17.30;99.90;;;;;;5091909;28;20039;-67
2023/07/29 05:34:52;;;;;;;14.65;6.20;;;17.40;99.90;;;;;;5099171;28;20092;-67
2023/07/29 05:37:18;;;;;;;10.40;5.45;;;17.40;99.90;;;;;;5094823;28;20530;-67
2023/07/29 05:39:44;;;;;;;9.30;5.30;;;17.40;99.90;;;;;;5103390;28;20035;-67
2023/07/29 05:42:09;;;;;;;9.70;5.43;;;17.40;99.90;;;;;;5090684;28;20574;-67
2023/07/29 05:44:35;;;;;;;10.70;5.50;;;17.40;99.90;;;;;;5104326;28;20070;-67
2023/07/29 05:47:00;;;;;;;11.48;6.30;;;17.40;99.90;;;;;;5092422;28;20128;-67
2023/07/29 05:49:26;;;;;;;11.32;5.70;;;17.40;99.90;;;;;;5099746;28;20093;-67
2023/07/29 05:51:52;;;;;;;10.73;5.65;;;17.50;99.90;;;;;;5104068;28;20031;-67
2023/07/29 05:54:18;;;;;;;15.60;6.03;;;17.50;99.90;;;;;;5086188;28;20413;-65
2023/07/29 05:56:44;;;;;;;10.93;5.95;;;17.50;99.90;;;;;;5086250;28;20036;-68
2023/07/29 05:59:10;;;;;;;13.80;6.10;;;17.60;99.90;;;;;;5100749;28;20051;-66
2023/07/29 06:01:35;;;;;;;10.43;6.63;;;17.60;99.90;;;;;;5103975;28;20032;-68
2023/07/29 06:04:01;;;;;;;10.32;6.40;;;17.70;99.90;;;;;;5094079;28;20486;-67
2023/07/29 06:06:27;;;;;;;10.75;6.40;;;17.70;99.90;;;;;;5101318;28;20042;-67
2023/07/29 06:08:52;;;;;;;15.57;6.40;;;17.80;99.90;;;;;;5101024;28;20815;-67
2023/07/29 06:11:18;;;;;;;10.40;6.00;;;17.90;99.90;;;;;;5094273;28;20078;-67
2023/07/29 06:13:44;;;;;;;11.68;6.28;;;17.90;99.90;;;;;;5103391;28;20035;-67
2023/07/29 06:16:10;;;;;;;13.07;7.20;;;18.00;99.90;;;;;;5104302;28;20036;-67
2023/07/29 06:18:35;;;;;;;12.50;6.75;;;18.10;99.90;;;;;;5085362;28;20042;-67
2023/07/29 06:21:01;;;;;;;10.30;6.75;;;18.10;99.90;;;;;;5103695;28;20047;-67
2023/07/29 06:23:26;;;;;;;10.73;6.68;;;18.20;99.90;;;;;;5104191;28;20177;-67
2023/07/29 06:25:52;;;;;;;11.88;6.75;;;18.30;99.90;;;;;;5106371;28;20050;-67
2023/07/29 06:28:17;;;;;;;11.82;6.68;;;18.40;99.90;;;;;;5090878;28;20039;-67
2023/07/29 06:30:43;;;;;;;11.82;6.95;;;18.30;99.90;;;;;;5093576;28;20164;-67
2023/07/29 06:33:09;;;;;;;12.82;7.03;;;18.40;99.90;;;;;;5103796;28;20423;-67
2023/07/29 06:35:34;;;;;;;14.00;6.72;;;18.40;99.90;;;;;;5104106;28;20442;-67
2023/07/29 06:38:00;;;;;;;11.52;6.75;;;18.40;99.90;;;;;;5076805;28;20608;-67
2023/07/29 06:40:26;;;;;;;13.63;6.25;;;18.50;99.90;;;;;;5092736;28;20047;-67
2023/07/29 06:42:51;;;;;;;12.00;6.63;;;18.50;99.90;;;;;;5092056;28;20791;-67
2023/07/29 06:45:17;;;;;;;10.85;6.22;;;18.60;99.90;;;;;;5088562;28;20048;-67
2023/07/29 06:47:43;;;;;;;10.10;6.35;;;18.60;99.90;;;;;;5090469;28;20042;-67
2023/07/29 06:50:09;;;;;;;11.35;6.55;;;18.70;99.90;;;;;;5102818;28;20059;-67
2023/07/29 06:52:36;;;;;;;10.60;6.10;;;18.80;99.90;;;;;;5096992;28;20032;-67
2023/07/29 06:55:02;;;;;;;11.82;5.93;;;18.80;99.90;;;;;;5102920;28;20027;-67
2023/07/29 06:57:28;;;;;;;10.25;5.93;;;18.70;99.90;;;;;;5109622;28;20051;-67
2023/07/29 06:59:53;;;;;;;10.43;6.15;;;18.80;99.90;;;;;;5094750;28;20107;-67
2023/07/29 07:02:19;;;;;;;10.18;5.75;;;18.80;99.90;;;;;;5101649;28;20075;-67
2023/07/29 07:04:45;;;;;;;11.50;6.45;;;18.90;99.90;;;;;;5107332;28;20046;-67
2023/07/29 07:07:10;;;;;;;11.77;6.00;;;18.90;99.90;;;;;;5099693;28;20048;-67
2023/07/29 07:09:36;;;;;;;10.25;6.22;;;18.90;99.90;;;;;;5094250;28;20030;-67
2023/07/29 07:12:02;;;;;;;13.52;6.28;;;18.90;99.90;;;;;;5108830;28;20036;-67
2023/07/29 07:14:27;;;;;;;8.80;6.07;;;18.80;99.90;;;;;;5104655;28;20477;-68
2023/07/29 07:16:53;;;;;;;9.45;6.15;;;18.80;99.90;;;;;;5085201;28;20584;-70
2023/07/29 07:19:18;;;;;;;12.70;6.10;;;18.90;99.90;;;;;;5088253;28;20512;-67
2023/07/29 07:21:47;;;;;;;12.15;6.38;;;19.00;99.90;;;;;;5099016;28;20036;-68
2023/07/29 07:24:12;;;;;;;9.27;6.35;;;19.10;99.90;;;;;;5110390;28;20110;-67
2023/07/29 07:26:41;;;;;;;9.88;6.25;;;19.20;99.90;;;;;;5111917;28;20043;-68
2023/07/29 07:29:07;;;;;;;13.15;6.95;;;19.20;99.90;;;;;;5098893;28;20059;-67
2023/07/29 07:31:35;;;;;;;12.63;6.22;;;19.40;99.90;;;;;;5106184;28;20407;-67
2023/07/29 07:34:02;;;;;;;10.65;6.80;;;19.50;99.90;;;;;;5107014;28;20047;-67
2023/07/29 07:36:28;;;;;;;10.43;6.03;;;19.60;99.90;;;;;;5113769;28;20085;-68
2023/07/29 07:38:54;;;;;;;9.90;6.50;;;19.60;99.90;;;;;;5111858;28;20047;-68
2023/07/29 07:41:19;;;;;;;9.65;5.72;;;19.80;99.90;;;;;;5091133;28;20596;-68
2023/07/29 07:43:45;;;;;;;11.00;5.88;;;19.70;99.90;;;;;;5095045;28;20042;-68
2023/07/29 07:46:11;;;;;;;11.98;6.18;;;19.90;99.90;;;;;;5103072;28;20131;-68
2023/07/29 07:48:38;;;;;;;11.68;6.43;;;19.80;99.90;;;;;;5098925;28;20405;-65
2023/07/29 07:51:13;;;;;;;11.18;6.05;;;19.90;99.90;;;;;;5088855;28;20040;-68
2023/07/29 07:53:40;;;;;;;8.60;5.63;;;19.80;99.90;;;;;;5096869;28;20165;-65
2023/07/29 07:56:06;;;;;;;12.95;5.82;;;19.80;99.90;;;;;;5105422;28;20035;-68
2023/07/29 07:58:32;;;;;;;11.25;6.13;;;19.90;99.90;;;;;;5100163;28;20047;-68
2023/07/29 08:01:02;;;;;;;9.20;5.88;;;20.10;99.90;;;;;;5088883;28;20050;-68
2023/07/29 08:03:28;;;;;;;10.13;6.07;;;20.10;99.90;;;;;;5104506;28;20501;-69
2023/07/29 08:05:53;;;;;;;7.18;5.80;;;19.90;99.90;;;;;;5081276;28;20054;-66
2023/07/29 08:08:19;;;;;;;9.77;5.50;;;19.80;99.90;;;;;;5077571;28;20401;-65
2023/07/29 08:10:44;;;;;;;8.05;5.85;;;19.70;99.90;;;;;;5105459;28;20097;-68
2023/07/29 08:13:10;;;;;;;10.30;5.80;;;19.80;99.90;;;;;;5113373;28;20481;-69
2023/07/29 08:15:35;;;;;;;8.60;6.00;;;19.90;99.90;;;;;;5104765;28;20031;-68
2023/07/29 08:18:01;;;;;;;7.70;5.43;;;20.10;99.90;;;;;;5106088;28;20454;-68
2023/07/29 08:20:27;;;;;;;9.25;5.70;;;20.30;99.90;;;;;;5112946;28;20043;-68
2023/07/29 08:22:52;;;;;;;7.10;5.20;;;20.50;99.90;;;;;;5096572;28;20994;-68
2023/07/29 08:25:18;;;;;;;7.05;4.63;;;20.80;99.90;;;;;;5095078;28;20044;-68
2023/07/29 08:27:43;;;;;;;8.13;4.63;;;20.80;99.90;;;;;;5102906;28;20485;-66
2023/07/29 08:30:09;;;;;;;7.25;4.47;;;20.90;99.90;;;;;;5103659;28;20055;-65
2023/07/29 08:32:35;;;;;;;6.82;4.28;;;20.80;99.90;;;;;;5099408;28;20059;-68
2023/07/29 08:35:00;;;;;;;7.03;4.47;;;20.70;99.90;;;;;;5099994;28;20035;-65
2023/07/29 08:37:27;;;;;;;7.35;4.10;;;20.60;99.90;;;;;;5086891;28;20036;-68
2023/07/29 08:39:53;;;;;;;6.78;4.18;;;20.70;99.90;;;;;;5098220;28;20122;-67
2023/07/29 08:42:20;;;;;;;7.05;4.55;;;20.80;99.90;;;;;;5085231;28;20141;-68
2023/07/29 08:44:49;;;;;;;9.98;4.18;;;20.80;99.90;;;;;;5099525;28;20036;-69
2023/07/29 08:47:15;;;;;;;6.63;3.92;;;20.70;99.90;;;;;;5103019;28;20050;-65
2023/07/29 08:49:41;;;;;;;7.97;3.90;;;20.80;99.90;;;;;;5088785;28;20024;-67
2023/07/29 08:52:08;;;;;;;5.50;3.85;;;21.00;99.90;;;;;;5099687;28;20107;-69
2023/07/29 08:54:35;;;;;;;8.48;3.83;;;21.20;99.90;;;;;;5083457;28;20056;-68
2023/07/29 08:57:00;;;;;;;6.13;3.63;;;21.40;99.90;;;;;;5083253;28;20036;-68
2023/07/29 08:59:28;;;;;;;7.50;3.60;;;21.60;99.90;;;;;;5100125;28;20393;-68
2023/07/29 09:01:57;;;;;;;6.53;3.47;;;21.90;99.90;;;;;;5101639;27;20808;-68
2023/07/29 09:04:24;;;;;;;6.63;3.47;;;22.00;99.90;;;;;;5080458;28;20391;-67
2023/07/29 09:06:51;;;;;;;7.45;3.60;;;21.80;99.90;;;;;;5094380;28;20040;-69
2023/07/29 09:09:17;;;;;;;5.93;3.17;;;21.70;99.90;;;;;;5101874;28;20311;-69
2023/07/29 09:11:44;;;;;;;4.35;3.35;;;21.80;99.90;;;;;;5105810;28;20400;-68
2023/07/29 09:14:10;;;;;;;3.78;2.95;;;22.00;99.90;;;;;;5096009;28;20028;-67
2023/07/29 09:16:36;;;;;;;5.50;2.90;;;21.90;99.90;;;;;;5100486;28;20058;-67
2023/07/29 09:19:05;;;;;;;4.53;2.85;;;21.70;99.90;;;;;;5104436;28;20055;-68
2023/07/29 09:21:32;;;;;;;4.93;3.10;;;21.80;99.90;;;;;;5097076;27;20039;-67
2023/07/29 09:24:03;;;;;;;5.68;2.78;;;22.00;99.90;;;;;;5090913;28;20043;-68
2023/07/29 09:26:28;;;;;;;4.20;2.85;;;22.20;99.90;;;;;;5099864;28;20128;-68
2023/07/29 09:28:56;;;;;;;5.63;2.88;;;22.10;99.90;;;;;;5104027;28;20075;-68
2023/07/29 09:31:23;;;;;;;5.30;2.80;;;22.10;99.90;;;;;;5097277;28;20040;-67
2023/07/29 09:33:49;;;;;;;5.93;2.60;;;21.90;99.90;;;;;;5104222;28;20031;-67
2023/07/29 09:36:15;;;;;;;6.28;2.72;;;21.70;99.90;;;;;;5104856;28;20031;-68
2023/07/29 09:38:41;;;;;;;4.85;2.80;;;21.90;99.90;;;;;;5097447;28;20031;-68
2023/07/29 09:41:07;;;;;;;4.53;2.45;;;22.00;99.90;;;;;;5100324;28;20074;-68
2023/07/29 09:43:34;;;;;;;4.28;2.47;;;22.00;99.90;;;;;;5103021;28;20674;-68
2023/07/29 09:46:01;;;;;;;5.38;2.53;;;22.30;99.90;;;;;;5099628;28;20039;-66
2023/07/29 09:48:28;;;;;;;5.70;2.50;;;22.30;99.90;;;;;;5094203;28;20375;-69
2023/07/29 09:50:55;;;;;;;5.82;2.80;;;22.10;99.90;;;;;;5096328;28;20031;-69
2023/07/29 09:53:21;;;;;;;4.32;2.80;;;21.90;99.90;;;;;;5091313;28;20388;-69
2023/07/29 09:55:50;;;;;;;6.07;2.97;;;21.80;99.90;;;;;;5103750;28;20861;-66
2023/07/29 09:58:26;;;;;;;6.10;3.10;;;21.80;99.90;;;;;;5103865;28;20493;-69
2023/07/29 10:00:52;;;;;;;4.75;2.95;;;21.80;99.90;;;;;;5099958;28;20050;-68
2023/07/29 10:03:22;;;;;;;5.78;2.85;;;21.90;99.90;;;;;;5095487;28;20043;-67
2023/07/29 10:05:48;;;;;;;4.60;3.22;;;22.10;99.90;;;;;;5092284;28;20061;-68
2023/07/29 10:08:14;;;;;;;4.38;2.90;;;22.30;99.90;;;;;;5106152;28;20032;-69
2023/07/29 10:10:42;;;;;;;5.28;3.20;;;22.30;99.90;;;;;;5106403;28;20042;-68
2023/07/29 10:13:10;;;;;;;5.43;2.80;;;22.20;99.90;;;;;;5090102;28;20486;-68
2023/07/29 10:15:36;;;;;;;4.88;2.78;;;22.00;99.90;;;;;;5089456;28;20043;-69
2023/07/29 10:18:02;;;;;;;6.03;3.20;;;22.10;99.90;;;;;;5107621;28;20074;-68
2023/07/29 10:20:30;;;;;;;5.50;4.00;;;22.10;99.90;;;;;;5088779;28;20557;-68
2023/07/29 10:23:00;;;;;;;5.15;3.80;;;22.10;99.90;;;;;;5089303;28;20481;-68
2023/07/29 10:25:39;;;;;;;5.47;3.95;;;22.10;99.90;;;;;;5099795;28;20043;-68
2023/07/29 10:28:07;;;;;;;8.13;5.00;;;22.20;99.90;;;;;;5102348;28;20093;-68
2023/07/29 10:30:33;;;;;;;7.57;4.90;;;22.40;99.90;;;;;;5103102;28;20047;-68
2023/07/29 10:33:04;;;;;;;4.57;3.90;;;22.60;99.90;;;;;;5099816;28;20035;-68
2023/07/29 10:35:29;;;;;;;5.75;5.15;;;22.60;99.90;;;;;;5101122;28;20525;-68
2023/07/29 10:37:56;;;;;;;6.28;5.05;;;22.70;99.90;;;;;;5088151;28;20069;-68
2023/07/29 10:40:21;;;;;;;6.20;4.93;;;22.60;99.90;;;;;;5099511;28;20584;-68
2023/07/29 10:43:26;;;;;;;6.57;5.30;;;22.50;99.90;;;;;;5097987;28;20126;-67
2023/07/29 10:45:52;;;;;;;6.95;6.22;;;22.40;99.90;;;;;;5066927;28;20048;-68
2023/07/29 10:48:51;;;;;;;7.82;6.05;;;22.50;99.90;;;;;;5080310;28;20056;-66
2023/07/29 10:51:35;;;;;;;7.18;5.63;;;22.50;99.90;;;;;;5086182;28;20097;-68
2023/07/29 10:54:02;;;;;;;6.85;6.07;;;22.40;99.90;;;;;;5092515;28;20028;-68
2023/07/29 10:56:33;;;;;;;8.65;6.30;;;22.20;99.90;;;;;;5100882;28;20043;-68
2023/07/29 10:59:22;;;;;;;8.32;6.43;;;21.90;99.90;;;;;;5105006;28;20512;-68
2023/07/29 11:01:54;;;;;;;12.63;7.20;;;21.50;99.90;;;;;;5098213;28;20049;-69
2023/07/29 11:04:20;;;;;;;8.88;6.93;;;21.40;99.90;;;;;;5103274;28;20040;-68
2023/07/29 11:07:07;;;;;;;7.72;6.65;;;21.50;99.90;;;;;;5106428;28;20031;-65
2023/07/29 11:09:48;;;;;;;9.88;6.63;;;21.70;99.90;;;;;;5101486;28;20135;-68
2023/07/29 11:12:32;;;;;;;;;;;21.90;99.90;;;;;;5106982;28;20059;-68
2023/07/29 11:15:01;;;;;;;7.43;5.70;;;22.00;99.90;;;;;;5105446;28;20014;-65
2023/07/29 11:17:27;;;;;;;6.80;5.63;;;22.20;99.90;;;;;;5100576;28;20036;-66
2023/07/29 11:19:56;;;;;;;7.10;5.00;;;22.50;99.90;;;;;;5093274;28;20052;-68
2023/07/29 11:22:21;;;;;;;7.90;5.38;;;22.80;99.90;;;;;;5104593;28;20040;-67
2023/07/29 11:24:47;;;;;;;7.40;5.00;;;22.60;99.90;;;;;;5086993;28;20093;-68
2023/07/29 11:27:13;;;;;;;11.40;6.63;;;22.60;99.90;;;;;;5084252;28;20040;-65
2023/07/29 11:29:38;;;;;;;7.65;5.00;;;22.60;99.90;;;;;;5105778;28;20550;-68
2023/07/29 11:32:04;;;;;;;9.55;5.00;;;22.50;99.90;;;;;;5093281;28;20039;-68
2023/07/29 11:34:33;;;;;;;6.60;4.80;;;22.30;99.90;;;;;;5098623;28;20095;-65
2023/07/29 11:36:58;;;;;;;8.82;5.20;;;22.20;99.90;;;;;;5106473;28;20031;-67
2023/07/29 11:39:24;;;;;;;5.25;4.40;;;22.20;99.90;;;;;;5093181;28;20110;-65
2023/07/29 11:41:50;;;;;;;8.82;5.07;;;22.20;99.90;;;;;;5090174;28;20032;-69
2023/07/29 11:44:18;;;;;;;7.10;5.25;;;22.40;99.90;;;;;;5088182;28;20640;-65
2023/07/29 11:46:44;;;;;;;6.85;4.30;;;22.90;99.90;;;;;;5098850;28;20039;-65
2023/07/29 11:49:10;;;;;;;7.50;3.80;;;23.00;99.90;;;;;;5111737;28;20032;-69
2023/07/29 11:51:41;;;;;;;5.70;3.67;;;22.90;99.90;;;;;;5105263;28;20088;-68
2023/07/29 11:54:06;;;;;;;6.85;3.30;;;22.80;99.90;;;;;;5092071;28;20047;-65
2023/07/29 11:56:32;;;;;;;6.03;3.10;;;22.60;99.90;;;;;;5103983;28;20093;-69
2023/07/29 11:58:58;;;;;;;5.97;2.83;;;22.50;99.90;;;;;;5099878;28;20044;-69
2023/07/29 12:01:24;;;;;;;5.68;3.25;;;22.60;99.90;;;;;;5095316;28;20036;-69
2023/07/29 12:03:51;;;;;;;5.25;3.40;;;22.80;99.90;;;;;;5104818;28;20109;-68
2023/07/29 12:06:17;;;;;;;5.57;3.10;;;23.00;99.90;;;;;;5106604;28;20376;-69
2023/07/29 12:08:43;;;;;;;5.80;3.33;;;23.20;99.90;;;;;;5092591;28;20040;-69
2023/07/29 12:11:09;;;;;;;6.18;3.20;;;23.10;99.90;;;;;;5104772;28;20035;-65
2023/07/29 12:13:36;;;;;;;5.68;3.08;;;23.50;99.90;;;;;;5105298;28;20581;-68
2023/07/29 12:16:03;;;;;;;5.78;2.72;;;23.60;99.90;;;;;;5096487;28;20043;-68
2023/07/29 12:18:32;;;;;;;7.05;3.30;;;23.60;99.90;;;;;;5085927;28;20096;-68
2023/07/29 12:20:59;;;;;;;6.57;2.95;;;23.90;99.90;;;;;;5090850;28;20058;-66
2023/07/29 12:23:28;;;;;;;4.95;2.92;;;23.80;99.90;;;;;;5093474;28;20040;-68
2023/07/29 12:25:58;;;;;;;5.00;3.35;;;23.80;99.90;;;;;;5094413;28;20389;-67
2023/07/29 12:28:25;;;;;;;4.22;3.17;;;23.70;99.90;;;;;;5102461;28;20051;-68
2023/07/29 12:30:59;;;;;;;3.75;2.72;;;23.50;99.90;;;;;;5101041;27;20557;-69
2023/07/29 12:33:35;;;;;;;4.68;2.78;;;23.60;99.90;;;;;;5091856;28;20557;-69
2023/07/29 12:36:02;;;;;;;5.22;3.00;;;23.80;99.90;;;;;;5095761;28;20035;-69
2023/07/29 12:38:28;;;;;;;6.18;2.83;;;23.50;99.90;;;;;;5104058;28;20212;-69
2023/07/29 12:40:54;;;;;;;4.30;2.80;;;23.30;99.90;;;;;;5098434;28;20043;-68